Time;durP1;ratioP1;P1;durP2;ratioP2;P2;SDS_P1;SDS_P2;PMS_P1;PMS_P2;Temp;Humidity;BMP_temperature;BMP_pressure;BME280_temperature;BME280_humidity;BME280_pressure;Samples;Min_cycle;Max_cycle;Signal;HPM_P1;HPM_P2
2024/04/24 00:01:50;;;;;;;7.10;5.43;;;;;;;3.93;100.00;100811.00;5270004;27;20702;-81
2024/04/24 00:04:16;;;;;;;8.95;6.18;;;;;;;3.95;100.00;100800.97;5279376;27;20082;-78
2024/04/24 00:06:41;;;;;;;9.18;6.10;;;;;;;3.94;100.00;100802.00;5248878;27;20013;-79
2024/04/24 00:09:07;;;;;;;8.15;6.05;;;;;;;3.91;100.00;100799.78;5233036;27;20006;-79
2024/04/24 00:11:48;;;;;;;10.40;6.30;;;;;;;3.89;100.00;100796.56;5272276;26;20010;-79
2024/04/24 00:14:25;;;;;;;9.23;6.78;;;;;;;3.87;100.00;100793.34;5263179;27;20043;-79
2024/04/24 00:16:54;;;;;;;10.25;6.70;;;;;;;3.89;100.00;100780.66;5198327;27;20015;-80
2024/04/24 00:19:20;;;;;;;9.75;6.10;;;;;;;3.85;100.00;100771.53;5220532;27;20011;-79
2024/04/24 00:21:49;;;;;;;8.70;6.00;;;;;;;3.80;100.00;100771.44;5257333;27;20105;-76
2024/04/24 00:24:23;;;;;;;9.23;6.40;;;;;;;3.84;100.00;100772.56;5234504;27;20419;-76
2024/04/24 00:26:53;;;;;;;10.88;6.70;;;;;;;3.77;100.00;100771.84;5247282;27;20617;-77
2024/04/24 00:29:19;;;;;;;8.75;6.55;;;;;;;3.78;100.00;100771.63;5248338;27;20077;-79
2024/04/24 00:31:47;;;;;;;8.23;5.40;;;;;;;3.73;100.00;100763.56;5257869;27;20017;-79
2024/04/24 00:34:14;;;;;;;8.07;5.63;;;;;;;3.71;100.00;100767.44;5281351;27;21525;-79
2024/04/24 00:36:44;;;;;;;10.25;6.38;;;;;;;3.67;100.00;100755.69;5226028;27;20059;-78
2024/04/24 00:39:10;;;;;;;9.95;6.20;;;;;;;3.65;100.00;100758.56;5247579;27;20049;-78
2024/04/24 00:41:54;;;;;;;11.45;6.10;;;;;;;3.62;100.00;100755.56;5242657;27;20021;-79
2024/04/24 00:44:25;;;;;;;9.05;6.03;;;;;;;3.59;100.00;100748.03;5287547;27;20022;-79
2024/04/24 00:46:57;;;;;;;9.82;6.07;;;;;;;3.60;100.00;100750.50;5253848;27;20014;-79
2024/04/24 00:49:26;;;;;;;11.15;7.15;;;;;;;3.63;100.00;100749.22;5532453;21;19998;-79
2024/04/24 00:51:52;;;;;;;7.82;4.78;;;;;;;3.55;100.00;100743.22;5224898;27;20002;-79
2024/04/24 00:54:24;;;;;;;9.52;6.57;;;;;;;3.55;100.00;100735.25;5246352;27;20000;-78
2024/04/24 00:56:50;;;;;;;10.13;6.43;;;;;;;3.65;100.00;100736.56;5238093;27;20008;-78
2024/04/24 00:59:16;;;;;;;9.05;6.75;;;;;;;3.65;100.00;100733.91;5185723;27;20090;-77
2024/04/24 01:01:41;;;;;;;10.60;6.53;;;;;;;3.69;100.00;100737.75;5142884;27;20015;-78
2024/04/24 01:04:10;;;;;;;12.27;7.50;;;;;;;3.69;100.00;100727.94;5164801;27;20217;-76
2024/04/24 01:06:37;;;;;;;11.20;6.93;;;;;;;3.70;100.00;100724.25;5169457;27;20443;-77
2024/04/24 01:09:02;;;;;;;13.45;6.65;;;;;;;3.73;100.00;100715.88;5199742;27;20011;-77
2024/04/24 01:11:31;;;;;;;9.18;6.60;;;;;;;3.73;100.00;100715.88;5177765;27;20004;-77
2024/04/24 01:13:57;;;;;;;10.48;7.20;;;;;;;3.71;100.00;100712.63;5190445;27;20300;-79
2024/04/24 01:16:28;;;;;;;12.95;6.60;;;;;;;3.68;100.00;100704.34;5207963;27;20004;-78
2024/04/24 01:19:01;;;;;;;8.30;5.35;;;;;;;3.70;100.00;100707.56;5218442;27;20004;-79
2024/04/24 01:21:47;;;;;;;9.10;6.22;;;;;;;3.67;100.00;100708.03;5207860;27;20010;-79
2024/04/24 01:24:21;;;;;;;13.00;7.10;;;;;;;3.69;100.00;100706.75;5193762;27;20012;-79
2024/04/24 01:26:51;;;;;;;11.55;6.75;;;;;;;3.67;100.00;100700.09;5194308;27;20034;-78
2024/04/24 01:29:16;;;;;;;8.32;6.25;;;;;;;3.67;100.00;100692.94;5204289;27;20588;-78
2024/04/24 01:31:47;;;;;;;9.32;6.60;;;;;;;3.61;100.00;100688.53;5210283;27;20090;-78
2024/04/24 01:34:13;;;;;;;12.98;8.60;;;;;;;3.62;100.00;100684.06;5192605;27;20019;-78
2024/04/24 01:36:38;;;;;;;10.40;6.78;;;;;;;3.60;100.00;100689.59;5192158;21;20008;-75
2024/04/24 01:39:04;;;;;;;11.15;7.05;;;;;;;3.56;100.00;100685.75;5129255;27;20476;-78
2024/04/24 01:41:30;;;;;;;9.88;6.30;;;;;;;3.58;100.00;100685.53;5166947;27;20087;-81
2024/04/24 01:43:56;;;;;;;;;;;;;;;3.59;100.00;100684.50;5222947;27;20023;-75
2024/04/24 01:46:21;;;;;;;10.73;6.63;;;;;;;3.58;100.00;100674.94;5167133;27;19928;-77
2024/04/24 01:48:48;;;;;;;12.27;6.50;;;;;;;3.60;100.00;100681.63;5164216;27;20045;-79
2024/04/24 01:51:14;;;;;;;12.57;6.82;;;;;;;3.60;100.00;100676.34;5179477;27;20514;-79
2024/04/24 01:53:40;;;;;;;10.88;7.05;;;;;;;3.61;100.00;100656.75;5136258;27;20016;-79
2024/04/24 01:56:09;;;;;;;11.18;7.18;;;;;;;3.63;100.00;100659.19;5160639;27;20012;-78
2024/04/24 01:58:35;;;;;;;10.52;7.13;;;;;;;3.62;100.00;100657.56;5185813;27;20004;-78
2024/04/24 02:01:00;;;;;;;11.57;6.90;;;;;;;3.60;100.00;100659.66;5204728;27;20135;-79
2024/04/24 02:03:26;;;;;;;12.48;7.35;;;;;;;3.59;100.00;100655.34;5164545;27;20470;-79
2024/04/24 02:05:52;;;;;;;11.88;7.10;;;;;;;3.56;100.00;100654.78;5167235;27;20023;-77
2024/04/24 02:08:17;;;;;;;15.25;8.38;;;;;;;3.54;100.00;100645.47;5183171;27;20019;-78
2024/04/24 02:10:43;;;;;;;11.52;6.57;;;;;;;3.52;100.00;100645.69;5190694;27;20008;-79
2024/04/24 02:13:09;;;;;;;12.73;8.05;;;;;;;3.54;100.00;100646.28;5171607;27;20362;-78
2024/04/24 02:15:35;;;;;;;12.18;7.13;;;;;;;3.55;100.00;100644.44;5173519;27;20368;-78
2024/04/24 02:18:05;;;;;;;12.27;7.43;;;;;;;3.52;100.00;100632.47;5181996;27;20011;-79
2024/04/24 02:20:32;;;;;;;10.07;7.45;;;;;;;3.51;100.00;100636.09;5140407;27;20005;-79
2024/04/24 02:22:59;;;;;;;13.90;7.38;;;;;;;3.51;100.00;100630.81;5166395;27;20016;-79
2024/04/24 02:25:34;;;;;;;12.15;7.80;;;;;;;3.52;100.00;100632.47;5174094;27;20088;-78
2024/04/24 02:28:02;;;;;;;13.43;7.85;;;;;;;3.52;100.00;100621.88;5173045;27;20471;-79
2024/04/24 02:30:27;;;;;;;11.07;6.90;;;;;;;3.53;100.00;100627.97;5194424;27;20025;-78
2024/04/24 02:32:53;;;;;;;14.77;8.15;;;;;;;3.53;100.00;100623.47;5179042;27;20012;-78
2024/04/24 02:35:19;;;;;;;13.50;8.52;;;;;;;3.55;100.00;100629.34;5175828;27;20005;-79
2024/04/24 02:37:44;;;;;;;11.82;7.88;;;;;;;3.55;100.00;100621.41;5166204;27;20019;-79
2024/04/24 02:40:10;;;;;;;13.02;7.88;;;;;;;3.56;100.00;100625.66;5195528;27;20023;-79
2024/04/24 02:42:36;;;;;;;11.95;7.50;;;;;;;3.59;100.00;100627.06;5186079;27;20008;-79
2024/04/24 02:45:02;;;;;;;15.02;8.70;;;;;;;3.61;100.00;100619.69;5161819;27;20020;-80
2024/04/24 02:47:29;;;;;;;13.00;7.25;;;;;;;3.65;100.00;100622.69;5177427;27;20012;-79
2024/04/24 02:49:55;;;;;;;14.02;8.55;;;;;;;3.66;100.00;100616.34;5140862;27;20021;-78
2024/04/24 02:52:21;;;;;;;16.85;9.50;;;;;;;3.66;100.00;100603.94;5161496;27;20008;-79
2024/04/24 02:54:46;;;;;;;16.60;8.52;;;;;;;3.67;100.00;100610.84;5138261;27;20031;-79
2024/04/24 02:57:12;;;;;;;20.33;10.68;;;;;;;3.66;100.00;100600.44;5160747;27;20041;-79
2024/04/24 02:59:39;;;;;;;13.77;8.23;;;;;;;3.68;100.00;100599.22;5167338;27;20004;-79
2024/04/24 03:02:05;;;;;;;15.88;9.57;;;;;;;3.67;100.00;100597.59;5162760;27;20009;-81
2024/04/24 03:04:30;;;;;;;16.80;9.20;;;;;;;3.68;100.00;100596.56;5156524;27;20027;-80
2024/04/24 03:06:57;;;;;;;15.27;9.02;;;;;;;3.69;100.00;100594.72;5197695;27;20080;-80
2024/04/24 03:09:23;;;;;;;14.07;9.20;;;;;;;3.73;100.00;100596.69;5141094;27;20004;-80
2024/04/24 03:11:48;;;;;;;18.63;10.23;;;;;;;3.75;100.00;100583.22;5143154;27;20085;-78
2024/04/24 03:14:20;;;;;;;16.15;9.60;;;;;;;3.75;100.00;100583.22;5131188;27;20017;-80
2024/04/24 03:16:46;;;;;;;14.98;9.10;;;;;;;3.79;100.00;100579.06;5162224;27;20012;-79
2024/04/24 03:19:12;;;;;;;15.00;9.88;;;;;;;3.79;100.00;100584.34;5156139;27;20008;-79
2024/04/24 03:21:38;;;;;;;16.20;9.65;;;;;;;3.77;100.00;100579.28;5140736;27;20013;-78
2024/04/24 03:24:04;;;;;;;17.10;10.25;;;;;;;3.79;100.00;100579.91;5173241;27;20012;-79
2024/04/24 03:26:29;;;;;;;14.95;9.32;;;;;;;3.82;100.00;100582.06;5165011;27;20004;-79
2024/04/24 03:28:55;;;;;;;17.73;9.20;;;;;;;3.82;100.00;100574.13;5163765;27;20043;-79
2024/04/24 03:31:21;;;;;;;17.10;9.75;;;;;;;3.82;100.00;100568.03;5217773;27;20005;-79
2024/04/24 03:33:47;;;;;;;16.15;9.95;;;;;;;3.84;100.00;100573.88;5170163;27;20038;-78
2024/04/24 03:36:13;;;;;;;16.70;9.82;;;;;;;3.87;100.00;100570.78;5138886;27;20043;-79
2024/04/24 03:38:38;;;;;;;16.20;9.82;;;;;;;3.86;100.00;100574.47;5175737;27;20007;-79
2024/04/24 03:41:04;;;;;;;13.73;9.60;;;;;;;3.86;100.00;100563.84;5172654;27;20011;-78
2024/04/24 03:43:30;;;;;;;19.20;10.20;;;;;;;3.86;100.00;100561.22;5176265;27;20530;-79
2024/04/24 03:45:56;;;;;;;14.18;9.07;;;;;;;3.85;100.00;100559.59;5148730;27;20011;-81
2024/04/24 03:48:21;;;;;;;14.13;8.27;;;;;;;3.84;100.00;100556.16;5137685;27;20401;-80
2024/04/24 03:50:48;;;;;;;17.30;9.10;;;;;;;3.86;100.00;100563.84;5195374;27;20084;-78
2024/04/24 03:53:14;;;;;;;13.95;8.57;;;;;;;3.87;100.00;100552.25;5182411;27;20014;-79
2024/04/24 03:55:40;;;;;;;16.30;9.13;;;;;;;3.89;100.00;100557.31;5172578;27;20000;-79
2024/04/24 03:58:06;;;;;;;12.98;8.90;;;;;;;3.89;100.00;100552.81;5193683;27;20004;-78
2024/04/24 04:00:32;;;;;;;15.88;8.80;;;;;;;3.89;100.00;100547.53;5189493;27;20087;-79
2024/04/24 04:02:57;;;;;;;15.38;8.60;;;;;;;3.90;100.00;100549.13;5156217;27;20037;-79
2024/04/24 04:05:23;;;;;;;12.52;8.10;;;;;;;3.92;100.00;100547.03;5134058;27;20004;-79
2024/04/24 04:07:58;;;;;;;12.48;7.97;;;;;;;3.93;100.00;100543.38;5144952;27;20019;-78
2024/04/24 04:10:24;;;;;;;12.68;7.95;;;;;;;3.92;100.00;100546.25;5214766;27;20019;-79
2024/04/24 04:12:49;;;;;;;11.80;7.80;;;;;;;3.95;100.00;100546.59;5194727;27;20023;-78
2024/04/24 04:15:17;;;;;;;13.32;8.60;;;;;;;3.93;100.00;100535.44;5171503;27;20410;-79
2024/04/24 04:17:46;;;;;;;12.13;7.68;;;;;;;3.94;100.00;100539.69;5167258;27;20024;-79
2024/04/24 04:20:12;;;;;;;11.73;6.15;;;;;;;3.93;100.00;100538.09;5165023;27;20109;-79
2024/04/24 04:22:38;;;;;;;12.60;7.57;;;;;;;3.93;100.00;100532.78;5170768;27;20009;-79
2024/04/24 04:25:04;;;;;;;10.45;7.07;;;;;;;3.95;100.00;100533.34;5163058;27;20434;-79
2024/04/24 04:27:31;;;;;;;18.65;7.53;;;;;;;3.96;100.00;100532.31;5153073;27;20008;-80
2024/04/24 04:29:59;;;;;;;16.42;7.65;;;;;;;3.96;100.00;100524.38;5139884;27;20026;-78
2024/04/24 04:32:25;;;;;;;10.18;6.90;;;;;;;3.93;100.00;100532.78;5192172;27;20005;-79
2024/04/24 04:34:51;;;;;;;9.32;6.13;;;;;;;3.94;100.00;100529.09;5214946;27;20035;-78
2024/04/24 04:37:17;;;;;;;12.80;6.70;;;;;;;3.95;100.00;100525.41;5166675;27;20013;-79
2024/04/24 04:39:43;;;;;;;15.35;7.40;;;;;;;3.96;100.00;100527.00;5170975;27;20076;-79
2024/04/24 04:42:09;;;;;;;12.32;7.75;;;;;;;4.00;100.00;100530.03;5163416;27;20013;-78
2024/04/24 04:44:35;;;;;;;;;;;;;;;4.01;100.00;100521.03;5165409;27;20012;-80
2024/04/24 04:47:01;;;;;;;10.68;7.03;;;;;;;4.01;100.00;100526.34;5168765;27;20007;-80
2024/04/24 04:49:27;;;;;;;10.77;7.10;;;;;;;4.01;100.00;100519.19;5167133;27;20012;-79
2024/04/24 04:51:52;;;;;;;12.18;6.97;;;;;;;4.02;100.00;100509.41;5158405;27;20020;-79
2024/04/24 04:54:18;;;;;;;11.93;6.97;;;;;;;4.05;100.00;100511.56;5162082;27;20032;-78
2024/04/24 04:56:43;;;;;;;15.00;7.22;;;;;;;4.08;100.00;100521.72;5129438;27;20047;-78
2024/04/24 04:59:09;;;;;;;11.63;6.85;;;;;;;4.09;100.00;100521.47;5162777;27;20016;-79
2024/04/24 05:01:35;;;;;;;9.57;6.60;;;;;;;4.10;100.00;100515.13;5187834;27;20004;-79
2024/04/24 05:04:00;;;;;;;10.27;6.32;;;;;;;4.12;100.00;100504.28;5104128;27;20212;-80
2024/04/24 05:06:26;;;;;;;13.30;7.05;;;;;;;4.15;100.00;100508.34;5183710;27;20060;-79
2024/04/24 05:08:52;;;;;;;10.38;6.28;;;;;;;4.16;100.00;100509.94;5211187;27;20083;-78
2024/04/24 05:11:18;;;;;;;10.73;6.20;;;;;;;4.18;100.00;100507.88;5165816;27;20012;-78
2024/04/24 05:13:43;;;;;;;10.68;5.72;;;;;;;4.14;100.00;100509.38;5158525;27;20455;-79
2024/04/24 05:16:11;;;;;;;9.35;5.38;;;;;;;4.17;100.00;100509.72;5160893;27;20576;-80
2024/04/24 05:18:37;;;;;;;8.20;4.78;;;;;;;4.20;100.00;100503.97;5208862;27;20015;-78
2024/04/24 05:21:05;;;;;;;10.82;5.53;;;;;;;4.22;100.00;100499.22;5169197;27;20101;-81
2024/04/24 05:23:31;;;;;;;10.10;5.22;;;;;;;4.24;100.00;100497.13;5156641;27;20037;-79
2024/04/24 05:25:57;;;;;;;7.35;4.97;;;;;;;4.19;100.00;100504.97;5132825;27;20000;-79
2024/04/24 05:31:07;;;;;;;10.30;4.75;;;;;;;4.24;100.00;100496.34;5172284;27;19929;-79
2024/04/24 05:33:33;;;;;;;11.88;5.22;;;;;;;4.26;100.00;100488.94;5171216;27;20013;-79
2024/04/24 05:35:59;;;;;;;8.05;4.50;;;;;;;4.27;100.00;100491.38;5156268;27;20020;-79
2024/04/24 05:38:24;;;;;;;10.73;4.97;;;;;;;4.25;100.00;100484.69;5157577;27;20109;-78
2024/04/24 05:40:51;;;;;;;13.43;5.03;;;;;;;4.26;100.00;100483.66;5191438;27;20024;-78
2024/04/24 05:43:17;;;;;;;9.15;5.00;;;;;;;4.26;100.00;100475.69;5161024;27;20024;-79
2024/04/24 05:45:43;;;;;;;8.75;4.18;;;;;;;4.23;100.00;100476.16;5172604;27;20008;-77
2024/04/24 05:48:08;;;;;;;9.90;4.22;;;;;;;4.17;100.00;100472.59;5166551;27;20024;-77
2024/04/24 05:50:34;;;;;;;8.60;4.40;;;;;;;4.20;100.00;100473.97;5191749;27;20478;-77
2024/04/24 05:53:00;;;;;;;9.38;5.05;;;;;;;4.24;100.00;100469.81;5135436;27;20021;-78
2024/04/24 05:55:26;;;;;;;8.27;4.45;;;;;;;4.26;100.00;100467.75;5171784;27;20031;-77
2024/04/24 05:57:52;;;;;;;7.40;4.10;;;;;;;4.28;100.00;100470.97;5165417;27;20091;-77
2024/04/24 06:00:17;;;;;;;7.88;4.10;;;;;;;4.31;100.00;100475.81;5189634;27;20067;-78
2024/04/24 06:02:43;;;;;;;7.80;3.88;;;;;;;4.33;100.00;100471.88;5168073;27;20004;-77
2024/04/24 06:05:09;;;;;;;8.90;4.20;;;;;;;4.31;100.00;100475.81;5210111;27;20002;-77
2024/04/24 06:07:34;;;;;;;6.88;3.85;;;;;;;4.34;100.00;100470.06;5166951;27;20004;-77
2024/04/24 06:10:00;;;;;;;9.70;4.05;;;;;;;4.30;100.00;100471.53;5142502;27;20374;-78
2024/04/24 06:12:26;;;;;;;8.75;4.38;;;;;;;4.33;100.00;100479.00;5165171;27;20015;-78
2024/04/24 06:14:51;;;;;;;10.18;3.78;;;;;;;4.34;100.00;100465.56;5221199;27;20367;-78
2024/04/24 06:17:17;;;;;;;7.95;3.50;;;;;;;4.39;100.00;100470.94;5177319;27;20014;-79
2024/04/24 06:19:43;;;;;;;6.50;2.92;;;;;;;4.43;100.00;100473.13;5201369;27;20000;-77
2024/04/24 06:22:09;;;;;;;8.98;3.40;;;;;;;4.45;100.00;100469.19;5231028;27;20003;-79
2024/04/24 06:24:35;;;;;;;9.02;3.63;;;;;;;4.47;100.00;100475.09;5171791;27;20001;-77
2024/04/24 06:27:01;;;;;;;7.00;3.13;;;;;;;4.44;100.00;100472.88;5190460;27;20016;-77
2024/04/24 06:29:26;;;;;;;5.93;3.58;;;;;;;4.45;100.00;100474.50;5137162;27;20012;-78
2024/04/24 06:31:52;;;;;;;6.93;3.00;;;;;;;4.47;100.00;100461.81;5167694;27;20438;-78
2024/04/24 06:34:19;;;;;;;10.05;3.30;;;;;;;4.48;100.00;100465.28;5139254;27;20020;-78
2024/04/24 06:36:44;;;;;;;7.20;3.63;;;;;;;4.53;100.00;100474.13;5140558;27;20014;-78
2024/04/24 06:39:10;;;;;;;8.45;3.50;;;;;;;4.55;100.00;100466.75;5165354;27;20350;-79
2024/04/24 06:41:36;;;;;;;8.25;3.28;;;;;;;4.56;100.00;100468.34;5144304;27;20008;-79
2024/04/24 06:44:02;;;;;;;6.80;3.03;;;;;;;4.58;100.00;100455.66;5131663;27;20766;-79
2024/04/24 06:46:27;;;;;;;5.82;3.10;;;;;;;4.61;100.00;100457.84;5165588;27;20013;-78
2024/04/24 06:48:53;;;;;;;6.72;2.88;;;;;;;4.64;100.00;100457.38;5160044;27;20839;-77
2024/04/24 06:51:19;;;;;;;5.90;2.95;;;;;;;4.60;100.00;100456.22;5164157;27;20019;-78
2024/04/24 06:53:44;;;;;;;8.80;2.88;;;;;;;4.60;100.00;100461.53;5133731;27;20012;-79
2024/04/24 06:56:10;;;;;;;7.63;3.45;;;;;;;4.58;100.00;100460.97;5172661;27;20017;-78
2024/04/24 06:58:37;;;;;;;7.80;3.45;;;;;;;4.55;100.00;100460.66;5192486;27;20011;-80
2024/04/24 07:01:03;;;;;;;6.93;3.03;;;;;;;4.51;100.00;100470.91;5132664;27;20058;-78
2024/04/24 07:03:30;;;;;;;6.07;2.60;;;;;;;4.46;100.00;100470.00;5189331;27;20005;-81
2024/04/24 07:05:57;;;;;;;5.57;2.25;;;;;;;4.43;100.00;100458.03;5216306;27;20032;-80
2024/04/24 07:08:23;;;;;;;3.33;2.28;;;;;;;4.42;100.00;100467.03;5165925;27;20096;-78
2024/04/24 07:10:50;;;;;;;;;;;;;;;4.39;100.00;100464.81;5174537;27;20012;-79
2024/04/24 07:13:17;;;;;;;4.18;1.90;;;;;;;4.39;100.00;100459.53;5197390;27;19928;-79
2024/04/24 07:15:43;;;;;;;4.38;2.65;;;;;;;4.38;100.00;100460.56;5169711;27;20027;-79
2024/04/24 07:18:10;;;;;;;5.22;2.40;;;;;;;4.36;100.00;100465.31;5168375;27;20021;-79
2024/04/24 07:20:36;;;;;;;4.97;2.70;;;;;;;4.38;100.00;100460.56;5167862;27;20017;-78
2024/04/24 07:23:02;;;;;;;3.50;2.30;;;;;;;4.35;100.00;100461.06;5144403;27;20008;-78
2024/04/24 07:25:27;;;;;;;4.10;2.38;;;;;;;4.31;100.00;100459.91;5153334;27;20041;-78
2024/04/24 07:27:53;;;;;;;5.68;2.50;;;;;;;4.31;100.00;100459.91;5137537;27;20012;-77
2024/04/24 07:30:22;;;;;;;5.05;2.40;;;;;;;4.31;100.00;100460.69;5160676;27;20013;-78
2024/04/24 07:32:48;;;;;;;5.55;1.92;;;;;;;4.28;100.00;100450.59;5145315;27;20019;-76
2024/04/24 07:35:15;;;;;;;4.43;2.10;;;;;;;4.30;100.00;100447.69;5157821;27;20008;-78
2024/04/24 07:37:41;;;;;;;4.32;2.20;;;;;;;4.31;100.00;100450.09;5161559;27;20055;-77
2024/04/24 07:40:07;;;;;;;2.80;1.92;;;;;;;4.33;100.00;100460.47;5131850;27;21627;-77
2024/04/24 07:42:33;;;;;;;3.50;2.30;;;;;;;4.36;100.00;100458.16;5200729;27;20096;-78
2024/04/24 07:44:59;;;;;;;3.15;2.10;;;;;;;4.41;100.00;100454.81;5202637;27;20795;-77
2024/04/24 07:47:24;;;;;;;5.10;1.80;;;;;;;4.43;100.00;100449.25;5212295;27;20062;-78
2024/04/24 07:49:50;;;;;;;3.72;2.22;;;;;;;4.51;100.00;100452.34;5135036;27;20359;-77
2024/04/24 07:52:16;;;;;;;7.45;2.35;;;;;;;4.58;100.00;100454.84;5161277;27;20026;-77
2024/04/24 07:54:42;;;;;;;5.35;2.30;;;;;;;4.65;100.00;100451.00;5195968;27;20060;-78
2024/04/24 07:57:08;;;;;;;3.53;1.90;;;;;;;4.69;100.00;100447.91;5181686;27;20104;-78
2024/04/24 07:59:35;;;;;;;6.07;2.65;;;;;;;4.75;100.00;100446.94;5163688;27;20730;-77
2024/04/24 08:02:01;;;;;;;4.60;1.95;;;;;;;4.84;100.00;100443.66;5138895;27;20204;-77
2024/04/24 08:04:27;;;;;;;3.40;1.85;;;;;;;4.93;100.00;100450.19;5165152;27;20012;-78
2024/04/24 08:06:53;;;;;;;5.68;1.88;;;;;;;5.03;100.00;100454.06;5158804;27;20012;-77
2024/04/24 08:09:19;;;;;;;8.50;2.22;;;;;;;5.03;100.00;100446.09;5162386;27;20027;-77
2024/04/24 08:11:44;;;;;;;5.20;2.40;;;;;;;5.02;100.00;100453.28;5168385;27;20090;-75
2024/04/24 08:14:11;;;;;;;4.68;2.47;;;;;;;5.10;100.00;100442.25;5188370;27;20032;-76
2024/04/24 08:16:37;;;;;;;4.47;2.33;;;;;;;5.18;100.00;100449.00;5184059;27;20018;-76
2024/04/24 08:19:02;;;;;;;5.03;1.92;;;;;;;5.16;100.00;100451.91;5167895;27;20003;-77
2024/04/24 08:21:28;;;;;;;6.38;2.28;;;;;;;5.05;100.00;100452.78;5161826;27;20007;-76
2024/04/24 08:23:54;;;;;;;4.35;2.05;;;;;;;5.14;100.00;100453.19;5225005;27;20019;-77
2024/04/24 08:26:21;;;;;;;4.50;2.55;;;;;;;5.21;100.00;100451.16;5161299;27;20044;-78
2024/04/24 08:28:47;;;;;;;5.03;2.20;;;;;;;5.09;100.00;100445.97;5189086;27;22045;-77
2024/04/24 08:31:13;;;;;;;5.03;2.25;;;;;;;5.17;100.00;100444.75;5169626;27;20020;-78
2024/04/24 08:33:41;;;;;;;6.10;2.65;;;;;;;5.12;100.00;100448.13;5185288;27;20011;-79
2024/04/24 08:36:15;;;;;;;4.50;1.95;;;;;;;5.18;100.00;100449.81;5189725;27;20022;-77
2024/04/24 08:38:42;;;;;;;5.28;2.30;;;;;;;5.19;100.00;100448.75;5187856;27;20674;-77
2024/04/24 08:41:12;;;;;;;4.75;2.17;;;;;;;5.18;100.00;100452.47;5171846;27;20016;-76
2024/04/24 08:43:39;;;;;;;5.53;2.95;;;;;;;5.17;100.00;100450.84;5108188;27;20474;-76
2024/04/24 08:46:10;;;;;;;7.95;2.28;;;;;;;5.16;100.00;100451.09;5158397;27;20016;-77
2024/04/24 08:48:44;;;;;;;4.75;2.63;;;;;;;5.19;100.00;100451.41;5172793;27;20059;-76
2024/04/24 08:51:12;;;;;;;6.43;2.78;;;;;;;5.27;100.00;100452.06;5161405;27;20068;-77
2024/04/24 08:54:02;;;;;;;4.97;2.42;;;;;;;5.30;100.00;100448.94;5156317;27;20771;-75
2024/04/24 08:56:33;;;;;;;7.63;2.00;;;;;;;5.41;100.00;100443.53;5166682;27;20956;-75
2024/04/24 08:59:03;;;;;;;5.78;2.30;;;;;;;5.51;100.00;100442.88;5192714;27;20009;-77
2024/04/24 09:01:34;;;;;;;5.88;1.98;;;;;;;5.56;100.00;100442.97;5157695;27;20012;-76
2024/04/24 09:04:05;;;;;;;6.82;2.05;;;;;;;5.60;100.00;100444.06;5163409;27;20023;-76
2024/04/24 09:06:33;;;;;;;2.80;2.20;;;;;;;5.63;100.00;100432.19;5170205;27;20107;-77
2024/04/24 09:09:00;;;;;;;4.22;1.95;;;;;;;5.65;100.00;100436.19;5165722;27;20061;-76
2024/04/24 09:11:26;;;;;;;4.43;2.05;;;;;;;5.69;100.00;100437.31;5188672;27;20087;-77
2024/04/24 09:13:53;;;;;;;5.70;2.60;;;;;;;5.68;100.00;100427.72;5206061;27;20443;-77
2024/04/24 09:16:21;;;;;;;4.93;2.53;;;;;;;5.70;100.00;100430.94;5160974;27;20031;-76
2024/04/24 09:19:00;;;;;;;6.45;2.92;;;;;;;5.68;100.00;100438.34;5137488;27;20027;-77
2024/04/24 09:21:31;;;;;;;4.80;2.15;;;;;;;5.64;100.00;100431.13;5159619;27;20012;-77
2024/04/24 09:23:57;;;;;;;3.92;1.88;;;;;;;5.65;100.00;100430.88;5210706;27;20365;-77
2024/04/24 09:26:23;;;;;;;5.85;2.28;;;;;;;5.71;100.00;100429.09;5165845;27;20023;-76
2024/04/24 09:28:50;;;;;;;6.05;2.47;;;;;;;5.73;100.00;100427.00;5163959;27;20019;-78
2024/04/24 09:31:17;;;;;;;3.22;1.95;;;;;;;5.80;100.00;100424.97;5144594;27;20051;-76
2024/04/24 09:33:43;;;;;;;9.70;3.10;;;;;;;5.84;100.00;100426.09;5207479;27;20008;-78
2024/04/24 09:36:10;;;;;;;5.82;2.13;;;;;;;5.85;100.00;100422.38;5170032;27;20024;-77
2024/04/24 09:38:36;;;;;;;5.05;2.25;;;;;;;5.85;100.00;100426.88;5153810;27;20020;-76
2024/04/24 09:41:02;;;;;;;3.83;1.80;;;;;;;5.92;100.00;100427.53;5136192;27;20009;-78
2024/04/24 09:43:29;;;;;;;7.28;2.40;;;;;;;6.00;100.00;100427.91;5160441;27;20008;-76
2024/04/24 09:45:56;;;;;;;4.53;2.17;;;;;;;6.09;100.00;100425.63;5165011;27;20001;-79
2024/04/24 09:48:22;;;;;;;5.70;1.92;;;;;;;6.15;100.00;100413.19;5211645;27;20052;-77
2024/04/24 09:50:49;;;;;;;7.30;2.25;;;;;;;6.29;100.00;100409.91;5141992;27;20836;-77
2024/04/24 09:53:17;;;;;;;4.05;1.83;;;;;;;6.37;100.00;100415.81;5188031;27;20023;-77
2024/04/24 09:55:48;;;;;;;4.28;2.35;;;;;;;6.52;100.00;100408.84;5224037;27;20037;-77
2024/04/24 09:58:18;;;;;;;4.65;2.35;;;;;;;6.49;100.00;100411.19;5167264;27;20358;-80
2024/04/24 10:00:46;;;;;;;5.53;2.28;;;;;;;6.46;100.00;100409.03;5160922;27;20013;-81
2024/04/24 10:03:17;;;;;;;4.90;1.60;;;;;;;6.44;100.00;100413.81;5164232;27;20004;-79
2024/04/24 10:05:46;;;;;;;5.88;2.33;;;;;;;6.42;100.00;100405.25;5177730;27;20455;-79
2024/04/24 10:08:15;;;;;;;4.63;1.83;;;;;;;6.46;100.00;100406.38;5135315;27;20494;-78
2024/04/24 10:10:47;;;;;;;4.05;2.30;;;;;;;6.54;100.00;100403.25;5159831;27;20467;-78
2024/04/24 10:13:15;;;;;;;6.20;1.92;;;;;;;6.65;100.00;100399.66;5160382;27;20012;-78
2024/04/24 10:15:44;;;;;;;4.13;2.25;;;;;;;6.67;100.00;100405.50;5157331;27;20004;-78
2024/04/24 10:18:11;;;;;;;5.57;2.00;;;;;;;6.70;100.00;100401.53;5221782;27;20008;-78
2024/04/24 10:20:41;;;;;;;6.65;1.75;;;;;;;6.65;100.00;100404.97;5159927;27;20719;-77
2024/04/24 10:23:09;;;;;;;5.25;2.38;;;;;;;6.59;100.00;100402.50;5168284;27;20750;-81
2024/04/24 10:25:35;;;;;;;5.10;1.63;;;;;;;6.54;100.00;100400.59;5217495;27;20016;-78
2024/04/24 10:28:05;;;;;;;4.28;1.85;;;;;;;6.61;100.00;100398.53;5188953;27;20025;-80
2024/04/24 10:30:34;;;;;;;4.95;1.73;;;;;;;6.69;100.00;100400.75;5221729;27;20004;-79
2024/04/24 10:32:59;;;;;;;5.78;2.28;;;;;;;6.84;100.00;100400.06;5171259;27;20708;-80
2024/04/24 10:35:27;;;;;;;4.97;1.80;;;;;;;7.05;100.00;100401.06;5198245;27;20045;-79
2024/04/24 10:37:57;;;;;;;4.30;2.17;;;;;;;7.44;100.00;100400.78;5199762;27;20008;-81
2024/04/24 10:40:27;;;;;;;3.13;1.50;;;;;;;7.67;100.00;100395.09;5175795;27;20816;-77
2024/04/24 10:43:06;;;;;;;2.42;1.50;;;;;;;7.83;100.00;100388.75;5175603;27;20015;-79
2024/04/24 10:45:38;;;;;;;5.00;1.50;;;;;;;8.17;100.00;100383.03;5217758;27;20092;-78
2024/04/24 10:48:04;;;;;;;4.18;1.60;;;;;;;8.13;100.00;100379.28;5140022;27;20009;-80
2024/04/24 10:50:33;;;;;;;4.68;1.77;;;;;;;8.25;100.00;100371.03;5170122;27;20015;-78
2024/04/24 10:53:02;;;;;;;4.15;1.75;;;;;;;8.21;100.00;100379.59;5220340;27;20620;-76
2024/04/24 10:55:28;;;;;;;4.95;2.22;;;;;;;8.15;100.00;100379.81;5169068;27;20004;-76
2024/04/24 10:57:54;;;;;;;3.83;1.83;;;;;;;8.09;100.00;100367.53;5158590;27;20092;-76
2024/04/24 11:00:22;;;;;;;4.13;1.50;;;;;;;8.00;100.00;100379.78;5174759;27;20007;-77
2024/04/24 11:02:50;;;;;;;3.05;1.70;;;;;;;7.89;100.00;100382.38;5214667;27;20013;-76
2024/04/24 11:05:18;;;;;;;2.20;1.20;;;;;;;7.83;100.00;100378.09;5138721;27;20012;-80
2024/04/24 11:07:55;;;;;;;3.85;1.88;;;;;;;7.54;100.00;100390.22;5157408;27;20009;-76
2024/04/24 11:10:21;;;;;;;2.95;1.33;;;;;;;7.41;100.00;100390.66;5144880;27;20027;-78
2024/04/24 11:12:46;;;;;;;3.28;1.40;;;;;;;7.51;100.00;100388.03;5174004;27;20096;-77
2024/04/24 11:15:20;;;;;;;2.10;1.30;;;;;;;7.71;100.00;100385.50;5133339;27;20993;-77
2024/04/24 11:17:48;;;;;;;3.45;1.35;;;;;;;7.79;100.00;100381.53;5169264;27;20057;-78
2024/04/24 11:20:15;;;;;;;2.72;1.20;;;;;;;7.80;100.00;100381.28;5187820;27;20008;-76
2024/04/24 11:22:42;;;;;;;3.40;0.95;;;;;;;7.69;100.00;100376.16;5220777;27;20467;-77
2024/04/24 11:25:09;;;;;;;3.00;1.48;;;;;;;7.67;100.00;100379.09;5227812;27;20028;-76